Brownfield, Illinois
Current Conditions -  °F | °C
As of 3:35 AM on Saturday 25 Oct 2014 (Local Time) from KM30 Reporting Station
Haze Haze  
Wind Chill: 50°   Ceiling: NA
Heat Index: 50°   Visibility: 2.5mi
Dew Point: 50°   Wind: 0mph
Humidity: 100%   Direction: NA
Pressure: 30.03"   Gusts: NA
Location:  37.3224°N, 88.5774°W
Report Text: KM30 250835Z AUTO 00000KT 2 1/2SM BR 10/10 A3003 RMK AO2 SKY OBSCURED T00980098
Loading
Personal Weather Stations






























Interactive Weather Map
Tropical Storm Tracking
New forecast layout! Learn more

10-Day Weather Forecast

Advertisements
Track Severe Weather on mobile